createdAt,value
2023-02-24T00:00:28.483Z,36.33
2023-02-24T00:03:12.450Z,33.50
2023-02-24T00:06:06.461Z,31.15
2023-02-24T00:08:54.453Z,32.28
2023-02-24T00:11:28.149Z,31.50
2023-02-24T00:14:16.502Z,31.77
2023-02-24T00:16:50.604Z,33.97
2023-02-24T00:19:41.488Z,34.78
2023-02-24T00:22:35.597Z,31.75
2023-02-24T00:25:29.465Z,31.38
2023-02-24T00:28:16.524Z,33.08
2023-02-24T00:30:49.625Z,34.03
2023-02-24T00:33:37.476Z,31.73
2023-02-24T00:36:12.589Z,33.90
2023-02-24T00:39:04.452Z,32.47
2023-02-24T00:41:40.221Z,31.65
2023-02-24T00:44:26.458Z,31.75
2023-02-24T00:47:01.580Z,30.40
2023-02-24T00:49:49.479Z,31.90
2023-02-24T00:52:34.457Z,31.60
2023-02-24T00:55:29.475Z,31.33
2023-02-24T00:58:26.457Z,32.45
2023-02-24T01:01:20.902Z,32.80
2023-02-24T01:03:55.599Z,30.67
2023-02-24T01:06:42.519Z,30.65
2023-02-24T01:09:23.592Z,30.30
2023-02-24T01:12:29.545Z,28.98
2023-02-24T01:15:03.249Z,30.02
2023-02-24T01:17:50.489Z,30.48
2023-02-24T01:20:30.564Z,30.05
2023-02-24T01:23:17.480Z,27.52
2023-02-24T01:25:58.254Z,27.65
2023-02-24T01:28:44.517Z,28.23
2023-02-24T01:31:24.104Z,26.25
2023-02-24T01:34:12.515Z,26.08
2023-02-24T01:36:55.486Z,27.83
2023-02-24T01:39:49.530Z,27.38
2023-02-24T01:42:36.525Z,26.73
2023-02-24T01:45:18.665Z,28.45
2023-02-24T01:48:11.482Z,27.50
2023-02-24T01:50:45.568Z,27.25
2023-02-24T01:53:32.522Z,26.33
2023-02-24T01:56:06.980Z,28.92
2023-02-24T01:58:54.524Z,27.70
2023-02-24T02:01:35.616Z,29.13
2023-02-24T02:04:40.525Z,28.67
2023-02-24T02:07:29.528Z,28.40
2023-02-24T02:10:13.524Z,28.13
2023-02-24T02:13:11.528Z,28.60
2023-02-24T02:16:26.626Z,27.00
2023-02-24T02:19:15.584Z,28.33
2023-02-24T02:22:14.512Z,29.45
2023-02-24T02:25:13.554Z,28.38
2023-02-24T02:28:09.573Z,28.67
2023-02-24T02:31:19.970Z,28.33
2023-02-24T02:34:08.522Z,27.70
2023-02-24T02:37:18.525Z,28.63
2023-02-24T02:40:07.527Z,28.00
2023-02-24T02:43:05.522Z,28.02
2023-02-24T02:46:22.600Z,29.52
2023-02-24T02:49:45.525Z,27.60
2023-02-24T02:52:41.526Z,28.13
2023-02-24T02:55:23.918Z,29.80
2023-02-24T02:58:15.543Z,27.83
2023-02-24T03:01:02.763Z,27.88
2023-02-24T03:03:53.531Z,27.80
2023-02-24T03:06:40.657Z,28.75
2023-02-24T03:09:32.522Z,27.65
2023-02-24T03:12:24.524Z,27.25
2023-02-24T03:15:24.539Z,28.15
2023-02-24T03:18:18.561Z,29.05
2023-02-24T03:21:24.937Z,27.30
2023-02-24T03:24:13.561Z,26.38
2023-02-24T03:26:58.307Z,27.98
2023-02-24T03:30:01.541Z,26.65
2023-02-24T03:32:51.955Z,26.08
2023-02-24T03:35:53.645Z,26.27
2023-02-24T03:38:48.493Z,29.35
2023-02-24T03:41:45.504Z,27.17
2023-02-24T03:44:18.680Z,25.98
2023-02-24T03:47:08.481Z,27.13
2023-02-24T03:49:43.830Z,29.15
2023-02-24T03:52:46.496Z,26.63
2023-02-24T03:56:05.552Z,27.63
2023-02-24T03:59:22.499Z,28.02
2023-02-24T04:02:12.614Z,28.95
2023-02-24T04:04:55.720Z,25.33
2023-02-24T04:08:07.550Z,28.85
2023-02-24T04:11:05.725Z,27.98
2023-02-24T04:14:17.680Z,25.15
2023-02-24T04:17:08.991Z,26.15
2023-02-24T04:19:58.498Z,27.58
2023-02-24T04:22:33.648Z,24.75
2023-02-24T04:25:24.561Z,25.77
2023-02-24T04:28:07.551Z,27.10
2023-02-24T04:31:05.628Z,26.48
2023-02-24T04:33:56.521Z,27.55
2023-02-24T04:36:29.658Z,28.20
2023-02-24T04:39:17.704Z,27.98
2023-02-24T04:41:52.659Z,28.63
2023-02-24T04:44:39.551Z,29.40
2023-02-24T04:47:19.571Z,28.60
2023-02-24T04:50:06.582Z,27.08
2023-02-24T04:52:39.670Z,27.58
2023-02-24T04:55:28.576Z,26.83
2023-02-24T04:58:03.639Z,25.98
2023-02-24T05:00:50.575Z,26.05
2023-02-24T05:03:28.707Z,26.70
2023-02-24T05:06:21.565Z,26.10
2023-02-24T05:09:01.586Z,26.48
2023-02-24T05:11:57.553Z,25.90
2023-02-24T05:14:46.583Z,27.17
2023-02-24T05:17:20.171Z,26.98
2023-02-24T05:20:24.584Z,28.33
2023-02-24T05:23:18.587Z,25.63
2023-02-24T05:26:15.598Z,27.23
2023-02-24T05:29:09.566Z,28.63
2023-02-24T05:31:56.686Z,27.35
2023-02-24T05:34:37.620Z,27.25
2023-02-24T05:37:24.583Z,26.15
2023-02-24T05:40:10.590Z,25.98
2023-02-24T05:42:58.592Z,26.70
2023-02-24T05:45:38.579Z,28.38
2023-02-24T05:48:32.578Z,27.25
2023-02-24T05:51:19.805Z,28.58
2023-02-24T05:54:02.575Z,30.50
2023-02-24T05:56:50.585Z,30.55
2023-02-24T05:59:32.658Z,31.13
2023-02-24T06:02:33.614Z,28.70
2023-02-24T06:05:36.669Z,30.15
2023-02-24T06:08:30.582Z,34.92
2023-02-24T06:11:26.727Z,62.63
2023-02-24T06:14:22.619Z,59.05
2023-02-24T06:17:16.580Z,38.63
2023-02-24T06:20:20.589Z,34.72
2023-02-24T06:23:15.612Z,34.00
2023-02-24T06:26:26.592Z,34.85
2023-02-24T06:29:13.610Z,33.58
2023-02-24T06:31:48.685Z,35.90
2023-02-24T06:34:36.585Z,33.33
2023-02-24T06:37:17.605Z,32.53
2023-02-24T06:40:05.623Z,36.00
2023-02-24T06:42:45.600Z,32.28
2023-02-24T06:45:33.680Z,30.25
2023-02-24T06:48:15.630Z,31.55
2023-02-24T06:51:11.602Z,30.50
2023-02-24T06:54:08.633Z,30.70
2023-02-24T06:57:05.630Z,28.00
2023-02-24T06:59:52.631Z,28.52
2023-02-24T07:02:39.742Z,29.95
2023-02-24T07:05:30.657Z,28.20
2023-02-24T07:08:03.713Z,28.75
2023-02-24T07:10:51.611Z,29.40
2023-02-24T07:13:24.715Z,31.10
2023-02-24T07:16:14.608Z,30.88
2023-02-24T07:18:48.946Z,28.52
2023-02-24T07:21:38.588Z,27.60
2023-02-24T07:24:20.631Z,25.85
2023-02-24T07:27:18.630Z,28.98
2023-02-24T07:30:05.621Z,37.05
2023-02-24T07:32:46.672Z,40.38
2023-02-24T07:38:34.627Z,34.40
2023-02-24T07:41:25.674Z,30.48
2023-02-24T07:44:09.631Z,26.65
2023-02-24T07:46:56.649Z,24.65
2023-02-24T07:49:37.632Z,24.13
2023-02-24T07:52:31.619Z,23.20
2023-02-24T07:55:18.645Z,23.27
2023-02-24T07:58:01.663Z,22.20
2023-02-24T08:01:07.622Z,21.17
2023-02-24T08:03:58.630Z,20.92
2023-02-24T08:06:47.968Z,19.13
2023-02-24T08:09:59.621Z,17.67
2023-02-24T08:12:35.200Z,16.38
2023-02-24T08:15:24.671Z,16.63
2023-02-24T08:18:06.638Z,18.33
2023-02-24T08:21:00.627Z,16.63
2023-02-24T08:23:51.636Z,16.80
2023-02-24T08:26:30.755Z,17.38
2023-02-24T08:29:20.945Z,17.25
2023-02-24T08:31:53.874Z,17.27
2023-02-24T08:34:40.636Z,17.52
2023-02-24T08:37:15.743Z,18.23
2023-02-24T08:42:53.731Z,18.08
2023-02-24T08:45:40.679Z,18.55
2023-02-24T08:48:26.376Z,19.73
2023-02-24T08:51:13.638Z,19.90
2023-02-24T08:53:47.192Z,19.98
2023-02-24T08:56:36.648Z,19.50
2023-02-24T08:59:29.131Z,19.52
2023-02-24T09:02:25.645Z,18.25
2023-02-24T09:05:03.943Z,19.20
2023-02-24T09:07:50.682Z,19.17
2023-02-24T09:10:32.639Z,19.95
2023-02-24T09:13:26.690Z,21.15
2023-02-24T09:16:25.005Z,18.88
2023-02-24T09:19:30.642Z,17.60
2023-02-24T09:22:21.825Z,17.73
2023-02-24T09:25:24.641Z,20.00
2023-02-24T09:28:15.651Z,17.45
2023-02-24T09:30:58.600Z,18.40
2023-02-24T09:33:45.634Z,18.27
2023-02-24T09:36:30.239Z,19.52
2023-02-24T09:39:16.692Z,18.23
2023-02-24T09:45:19.650Z,18.15
2023-02-24T09:48:01.663Z,18.48
2023-02-24T09:51:18.917Z,18.33
2023-02-24T09:54:20.614Z,19.15
2023-02-24T09:57:17.213Z,20.55
2023-02-24T10:00:34.502Z,19.85
2023-02-24T10:03:19.951Z,18.92
2023-02-24T10:06:18.697Z,20.17
2023-02-24T10:09:06.516Z,18.25
2023-02-24T10:15:25.665Z,20.05
2023-02-24T10:19:07.663Z,18.20
2023-02-24T10:22:14.705Z,19.77
2023-02-24T10:25:22.583Z,20.40
2023-02-24T10:28:26.698Z,19.88
2023-02-24T10:31:26.075Z,19.35
2023-02-24T10:34:17.677Z,19.33
2023-02-24T10:36:57.684Z,20.10
2023-02-24T10:39:51.487Z,19.52
2023-02-24T10:42:43.667Z,19.13
2023-02-24T10:45:40.693Z,19.55
2023-02-24T10:48:41.464Z,19.05
2023-02-24T10:51:28.698Z,21.73
2023-02-24T10:54:40.725Z,28.83
2023-02-24T10:57:24.697Z,25.85
2023-02-24T11:00:58.732Z,26.48
2023-02-24T11:03:54.688Z,21.88
2023-02-24T11:06:48.706Z,23.67
2023-02-24T11:09:35.669Z,20.30
2023-02-24T11:12:37.533Z,22.38
2023-02-24T11:15:44.584Z,22.15
2023-02-24T11:18:27.827Z,21.92
2023-02-24T11:21:24.686Z,20.27
2023-02-24T11:24:19.690Z,19.80
2023-02-24T11:27:09.818Z,22.48
2023-02-24T11:30:06.786Z,22.33
2023-02-24T11:33:23.697Z,21.42
2023-02-24T11:36:26.713Z,18.38
2023-02-24T11:39:47.685Z,17.30
2023-02-24T11:43:05.685Z,17.75
2023-02-24T11:45:57.744Z,21.05
2023-02-24T11:48:38.835Z,22.48
2023-02-24T11:51:29.704Z,28.02
2023-02-24T11:54:08.798Z,24.27
2023-02-24T11:57:06.702Z,21.60
2023-02-24T12:00:04.687Z,22.63
2023-02-24T12:03:04.124Z,23.88
2023-02-24T12:05:55.747Z,23.75
2023-02-24T12:08:37.886Z,23.55
2023-02-24T12:11:53.734Z,22.63
2023-02-24T12:14:51.819Z,23.52
2023-02-24T12:17:55.724Z,23.60
2023-02-24T12:20:46.715Z,24.77
2023-02-24T12:23:45.720Z,22.58
2023-02-24T12:26:38.713Z,23.10
2023-02-24T12:29:35.873Z,22.50
2023-02-24T12:32:56.756Z,23.67
2023-02-24T12:35:54.717Z,26.55
2023-02-24T12:38:49.765Z,25.45
2023-02-24T12:41:49.713Z,23.23
2023-02-24T12:44:43.839Z,23.98
2023-02-24T12:47:53.950Z,24.70
2023-02-24T12:50:53.720Z,25.58
2023-02-24T12:53:57.813Z,22.52
2023-02-24T12:57:06.748Z,20.90
2023-02-24T12:59:45.823Z,20.10
2023-02-24T13:03:07.741Z,20.77
2023-02-24T13:05:56.753Z,19.38
2023-02-24T13:09:04.716Z,19.15
2023-02-24T13:12:09.726Z,17.70
2023-02-24T13:14:57.749Z,21.05
2023-02-24T13:17:32.838Z,22.73
2023-02-24T13:20:20.719Z,23.75
2023-02-24T13:23:00.731Z,20.33
2023-02-24T13:25:54.735Z,19.80
2023-02-24T13:28:44.736Z,22.75
2023-02-24T13:31:23.691Z,20.58
2023-02-24T13:34:36.750Z,19.10
2023-02-24T13:37:09.975Z,20.13
2023-02-24T13:39:56.733Z,22.63
2023-02-24T13:42:42.765Z,20.77
2023-02-24T13:45:43.745Z,20.27
2023-02-24T13:48:42.754Z,20.30
2023-02-24T13:52:04.837Z,21.77
2023-02-24T13:55:04.751Z,21.92
2023-02-24T13:58:21.755Z,20.15
2023-02-24T14:01:22.234Z,19.67
2023-02-24T14:04:17.756Z,21.50
2023-02-24T14:06:57.879Z,21.70
2023-02-24T14:09:49.746Z,20.30
2023-02-24T14:12:33.742Z,21.25
2023-02-24T14:15:32.838Z,21.52
2023-02-24T14:18:35.757Z,21.75
2023-02-24T14:21:09.892Z,20.08
2023-02-24T14:24:08.768Z,21.30
2023-02-24T14:26:49.960Z,20.88
2023-02-24T14:29:44.211Z,22.30
2023-02-24T14:32:34.872Z,20.40
2023-02-24T14:35:38.779Z,33.97
2023-02-24T14:38:12.865Z,28.88
2023-02-24T14:40:59.776Z,25.08
2023-02-24T14:43:40.770Z,24.02
2023-02-24T14:46:27.838Z,22.55
2023-02-24T14:49:08.810Z,22.35
2023-02-24T14:52:01.771Z,23.25
2023-02-24T14:55:03.914Z,24.20
2023-02-24T14:58:08.767Z,22.45
2023-02-24T15:00:56.790Z,24.67
2023-02-24T15:03:57.776Z,24.15
2023-02-24T15:06:49.837Z,26.95
2023-02-24T15:09:34.812Z,27.23
2023-02-24T15:12:42.786Z,26.55
2023-02-24T15:15:34.783Z,26.13
2023-02-24T15:18:40.813Z,26.88
2023-02-24T15:21:45.793Z,28.35
2023-02-24T15:24:47.776Z,27.63
2023-02-24T15:27:42.794Z,26.13
2023-02-24T15:30:40.824Z,27.27
2023-02-24T15:33:30.795Z,26.40
2023-02-24T15:36:05.870Z,25.98
2023-02-24T15:38:53.817Z,28.92
2023-02-24T15:41:26.887Z,28.90
2023-02-24T15:44:28.780Z,28.27
2023-02-24T15:47:10.831Z,27.92
2023-02-24T15:49:57.793Z,31.10
2023-02-24T15:52:40.861Z,31.30
2023-02-24T15:55:41.920Z,31.08
2023-02-24T15:58:29.799Z,29.83
2023-02-24T16:01:02.911Z,28.75
2023-02-24T16:03:49.838Z,26.48
2023-02-24T16:06:28.502Z,29.73
2023-02-24T16:09:22.797Z,29.42
2023-02-24T16:11:55.928Z,34.85
2023-02-24T16:14:42.803Z,33.13
2023-02-24T16:17:43.894Z,30.30
2023-02-24T16:20:41.878Z,27.67
2023-02-24T16:23:16.884Z,27.55
2023-02-24T16:26:05.812Z,28.38
2023-02-24T16:28:38.883Z,28.73
2023-02-24T16:31:26.064Z,28.25
2023-02-24T16:34:01.095Z,28.15
2023-02-24T16:36:48.826Z,26.75
2023-02-24T16:39:28.823Z,29.27
2023-02-24T16:42:23.796Z,27.83
2023-02-24T16:45:17.821Z,27.67
2023-02-24T16:48:07.829Z,28.90
2023-02-24T16:50:45.969Z,32.40
2023-02-24T16:53:32.819Z,33.58
2023-02-24T16:56:12.837Z,37.08
2023-02-24T16:59:06.829Z,36.38
2023-02-24T17:01:53.815Z,35.00
2023-02-24T17:04:29.012Z,35.60
2023-02-24T17:07:17.812Z,31.35
2023-02-24T17:09:50.988Z,29.75
2023-02-24T17:12:37.826Z,29.45
2023-02-24T17:15:18.811Z,26.17
2023-02-24T17:18:12.832Z,29.30
2023-02-24T17:21:00.033Z,28.48
2023-02-24T17:23:32.943Z,25.48
2023-02-24T17:26:22.083Z,28.23
2023-02-24T17:28:55.935Z,29.27
2023-02-24T17:31:42.953Z,27.98
2023-02-24T17:34:27.846Z,29.80
2023-02-24T17:37:21.840Z,29.92
2023-02-24T17:40:15.839Z,29.58
2023-02-24T17:43:09.846Z,32.00
2023-02-24T17:45:57.864Z,33.28
2023-02-24T17:48:37.846Z,34.85
2023-02-24T17:51:26.836Z,33.78
2023-02-24T17:54:00.937Z,32.70
2023-02-24T17:56:47.832Z,34.30
2023-02-24T17:59:20.935Z,36.70
2023-02-24T18:02:08.907Z,43.80
2023-02-24T18:04:41.957Z,51.00
2023-02-24T18:07:28.856Z,43.33
2023-02-24T18:10:02.017Z,41.15
2023-02-24T18:12:48.836Z,39.08
2023-02-24T18:15:28.912Z,39.53
2023-02-24T18:18:15.906Z,40.25
2023-02-24T18:20:49.992Z,36.20
2023-02-24T18:23:44.846Z,38.72
2023-02-24T18:26:38.840Z,38.00
2023-02-24T18:29:32.848Z,38.78
2023-02-24T18:32:19.994Z,39.47
2023-02-24T18:34:53.033Z,38.17
2023-02-24T18:37:39.867Z,38.33
2023-02-24T18:40:20.840Z,44.47
2023-02-24T18:43:15.002Z,43.28
2023-02-24T18:46:07.028Z,46.72
2023-02-24T18:48:41.340Z,45.20
2023-02-24T18:51:29.876Z,41.58
2023-02-24T18:54:13.283Z,35.13
2023-02-24T18:57:06.872Z,38.17
2023-02-24T18:59:57.879Z,36.30
2023-02-24T19:02:37.886Z,35.35
2023-02-24T19:05:38.395Z,31.50
2023-02-24T19:08:25.869Z,33.08
2023-02-24T19:10:58.951Z,33.50
2023-02-24T19:13:45.930Z,32.10
2023-02-24T19:16:19.048Z,34.03
2023-02-24T19:19:06.871Z,30.23
2023-02-24T19:21:41.018Z,33.53
2023-02-24T19:24:27.875Z,33.88
2023-02-24T19:27:01.267Z,32.88
2023-02-24T19:29:47.870Z,32.25
2023-02-24T19:32:28.007Z,32.03
2023-02-24T19:35:23.026Z,31.92
2023-02-24T19:38:10.024Z,34.80
2023-02-24T19:40:43.099Z,40.67
2023-02-24T19:43:29.873Z,32.83
2023-02-24T19:46:03.051Z,30.98
2023-02-24T19:48:49.905Z,29.50
2023-02-24T19:51:25.981Z,27.77
2023-02-24T19:54:12.898Z,26.25
2023-02-24T19:56:52.893Z,32.88
2023-02-24T19:59:46.899Z,35.67
2023-02-24T20:02:40.889Z,31.45
2023-02-24T20:05:27.889Z,40.15
2023-02-24T20:08:07.894Z,41.97
2023-02-24T20:11:11.876Z,40.10
2023-02-24T20:13:59.907Z,38.35
2023-02-24T20:16:34.830Z,38.08
2023-02-24T20:19:22.894Z,37.33
2023-02-24T20:22:02.920Z,37.83
2023-02-24T20:24:57.060Z,38.28
2023-02-24T20:27:50.914Z,40.65
2023-02-24T20:30:37.936Z,43.85
2023-02-24T20:33:11.029Z,44.83
2023-02-24T20:35:58.891Z,42.33
2023-02-24T20:38:38.911Z,42.53
2023-02-24T20:41:27.899Z,39.80
2023-02-24T20:44:02.098Z,40.45
2023-02-24T20:46:48.931Z,33.15
2023-02-24T20:49:22.066Z,30.58
2023-02-24T20:52:08.919Z,41.40
2023-02-24T20:54:44.264Z,36.17
2023-02-24T20:57:30.935Z,35.45
2023-02-24T21:00:14.937Z,34.47
2023-02-24T21:03:13.907Z,33.72
2023-02-24T21:06:09.474Z,34.33
2023-02-24T21:08:45.803Z,35.28
2023-02-24T21:11:33.945Z,33.33
2023-02-24T21:14:13.908Z,33.03
2023-02-24T21:17:07.935Z,29.73
2023-02-24T21:19:55.910Z,31.42
2023-02-24T21:22:31.314Z,35.15
2023-02-24T21:25:17.979Z,35.20
2023-02-24T21:27:52.030Z,33.00
2023-02-24T21:30:39.015Z,30.75
2023-02-24T21:33:19.912Z,33.10
2023-02-24T21:36:17.933Z,31.85
2023-02-24T21:39:04.924Z,34.28
2023-02-24T21:41:38.059Z,36.90
2023-02-24T21:44:24.920Z,38.13
2023-02-24T21:46:58.084Z,37.28
2023-02-24T21:49:44.927Z,38.00
2023-02-24T21:52:18.026Z,39.83
2023-02-24T21:55:04.932Z,39.22
2023-02-24T21:57:41.108Z,35.97
2023-02-24T22:00:28.872Z,36.33
2023-02-24T22:03:08.991Z,36.05
2023-02-24T22:06:02.940Z,34.70
2023-02-24T22:08:49.971Z,34.58
2023-02-24T22:11:24.028Z,37.50
2023-02-24T22:14:13.925Z,39.22
2023-02-24T22:16:48.041Z,35.35
2023-02-24T22:19:34.938Z,38.83
2023-02-24T22:22:14.949Z,36.45
2023-02-24T22:25:08.944Z,34.47
2023-02-24T22:28:02.925Z,37.08
2023-02-24T22:30:49.960Z,38.08
2023-02-24T22:33:29.945Z,39.67
2023-02-24T22:36:18.949Z,39.03
2023-02-24T22:38:53.071Z,40.13
2023-02-24T22:41:41.957Z,38.30
2023-02-24T22:44:25.964Z,39.78
2023-02-24T22:47:19.932Z,40.70
2023-02-24T22:50:06.996Z,38.47
2023-02-24T22:52:40.049Z,38.22
2023-02-24T22:55:26.958Z,41.55
2023-02-24T22:58:06.951Z,39.75
2023-02-24T23:01:05.013Z,37.10
2023-02-24T23:03:53.138Z,40.33
2023-02-24T23:06:38.990Z,37.55
2023-02-24T23:09:32.951Z,37.78
2023-02-24T23:12:21.940Z,38.58
2023-02-24T23:14:55.073Z,38.25
2023-02-24T23:17:41.959Z,42.13
2023-02-24T23:20:16.315Z,41.85
2023-02-24T23:23:09.960Z,39.33
2023-02-24T23:26:03.983Z,39.75
2023-02-24T23:28:50.995Z,41.35
2023-02-24T23:31:33.041Z,42.65
2023-02-24T23:34:28.051Z,45.45
2023-02-24T23:37:22.977Z,45.55
2023-02-24T23:40:21.013Z,42.97
2023-02-24T23:42:54.401Z,45.72
2023-02-24T23:45:44.005Z,45.85
2023-02-24T23:48:20.805Z,44.65
2023-02-24T23:51:13.990Z,44.92
2023-02-24T23:53:56.035Z,49.03
2023-02-24T23:56:49.980Z,44.60
2023-02-24T23:59:44.030Z,42.58
